sensor_id;sensor_type;location;lat;lon;timestamp;pressure;altitude;pressure_sealevel;temperature;humidity
39267;BME280;24967;51.154;13.812;2022-12-18T00:01:49;101023.22;;;-5.61;64.33
39267;BME280;24967;51.154;13.812;2022-12-18T00:04:16;101016.28;;;-5.57;63.91
39267;BME280;24967;51.154;13.812;2022-12-18T00:06:44;101023.22;;;-5.58;63.98
39267;BME280;24967;51.154;13.812;2022-12-18T00:09:11;101024.94;;;-5.54;64.05
39267;BME280;24967;51.154;13.812;2022-12-18T00:11:37;101027.59;;;-5.69;63.84
39267;BME280;24967;51.154;13.812;2022-12-18T00:14:04;101020.81;;;-5.82;64.38
39267;BME280;24967;51.154;13.812;2022-12-18T00:16:31;101026.00;;;-5.85;64.46
39267;BME280;24967;51.154;13.812;2022-12-18T00:19:00;101026.94;;;-5.92;64.25
39267;BME280;24967;51.154;13.812;2022-12-18T00:21:27;101026.06;;;-5.90;64.43
39267;BME280;24967;51.154;13.812;2022-12-18T00:23:54;101035.47;;;-5.81;64.78
39267;BME280;24967;51.154;13.812;2022-12-18T00:26:21;101045.00;;;-5.83;64.72
39267;BME280;24967;51.154;13.812;2022-12-18T00:28:49;101043.50;;;-6.15;65.52
39267;BME280;24967;51.154;13.812;2022-12-18T00:31:16;101047.81;;;-6.14;65.51
39267;BME280;24967;51.154;13.812;2022-12-18T00:33:44;101050.38;;;-6.09;65.46
39267;BME280;24967;51.154;13.812;2022-12-18T00:36:11;101051.41;;;-6.41;66.36
39267;BME280;24967;51.154;13.812;2022-12-18T00:38:38;101047.06;;;-6.36;65.95
39267;BME280;24967;51.154;13.812;2022-12-18T00:41:05;101052.97;;;-6.09;65.96
39267;BME280;24967;51.154;13.812;2022-12-18T00:43:31;101063.19;;;-5.91;66.24
39267;BME280;24967;51.154;13.812;2022-12-18T00:45:57;101062.53;;;-6.19;65.27
39267;BME280;24967;51.154;13.812;2022-12-18T00:48:23;101060.81;;;-6.22;65.44
39267;BME280;24967;51.154;13.812;2022-12-18T00:50:51;101071.19;;;-6.26;65.01
39267;BME280;24967;51.154;13.812;2022-12-18T00:53:17;101078.13;;;-6.37;64.90
39267;BME280;24967;51.154;13.812;2022-12-18T00:55:44;101091.00;;;-6.19;65.05
39267;BME280;24967;51.154;13.812;2022-12-18T00:58:11;101078.00;;;-6.11;65.25
39267;BME280;24967;51.154;13.812;2022-12-18T01:00:38;101078.84;;;-6.05;65.12
39267;BME280;24967;51.154;13.812;2022-12-18T01:03:04;101078.84;;;-6.02;65.21
39267;BME280;24967;51.154;13.812;2022-12-18T01:05:31;101079.63;;;-5.96;64.63
39267;BME280;24967;51.154;13.812;2022-12-18T01:07:59;101077.94;;;-5.97;64.60
39267;BME280;24967;51.154;13.812;2022-12-18T01:10:26;101078.78;;;-5.97;64.12
39267;BME280;24967;51.154;13.812;2022-12-18T01:12:52;101081.38;;;-5.97;63.99
39267;BME280;24967;51.154;13.812;2022-12-18T01:15:18;101071.94;;;-6.04;64.29
39267;BME280;24967;51.154;13.812;2022-12-18T01:17:45;101072.78;;;-6.05;64.03
39267;BME280;24967;51.154;13.812;2022-12-18T01:20:11;101073.69;;;-6.08;63.68
39267;BME280;24967;51.154;13.812;2022-12-18T01:22:38;101071.97;;;-6.15;63.01
39267;BME280;24967;51.154;13.812;2022-12-18T01:25:06;101079.78;;;-6.24;62.81
39267;BME280;24967;51.154;13.812;2022-12-18T01:27:33;101084.19;;;-6.43;63.05
39267;BME280;24967;51.154;13.812;2022-12-18T01:30:00;101090.31;;;-6.75;63.91
39267;BME280;24967;51.154;13.812;2022-12-18T01:32:28;101092.91;;;-6.69;63.65
39267;BME280;24967;51.154;13.812;2022-12-18T01:34:55;101095.53;;;-6.90;64.50
39267;BME280;24967;51.154;13.812;2022-12-18T01:37:21;101093.84;;;-7.22;65.36
39267;BME280;24967;51.154;13.812;2022-12-18T01:39:48;101088.66;;;-7.26;65.36
39267;BME280;24967;51.154;13.812;2022-12-18T01:42:16;101087.84;;;-7.28;65.66
39267;BME280;24967;51.154;13.812;2022-12-18T01:44:59;101091.25;;;-7.12;66.04
39267;BME280;24967;51.154;13.812;2022-12-18T01:47:27;101095.56;;;-6.95;65.26
39267;BME280;24967;51.154;13.812;2022-12-18T01:49:55;101101.59;;;-7.12;65.57
39267;BME280;24967;51.154;13.812;2022-12-18T01:52:22;101102.47;;;-7.35;65.17
39267;BME280;24967;51.154;13.812;2022-12-18T01:54:50;101103.31;;;-7.36;65.26
39267;BME280;24967;51.154;13.812;2022-12-18T01:57:19;101101.59;;;-7.22;65.27
39267;BME280;24967;51.154;13.812;2022-12-18T01:59:47;101102.47;;;-7.04;65.46
39267;BME280;24967;51.154;13.812;2022-12-18T02:02:15;101102.44;;;-6.97;65.59
39267;BME280;24967;51.154;13.812;2022-12-18T02:04:42;101094.69;;;-6.97;65.24
39267;BME280;24967;51.154;13.812;2022-12-18T02:07:10;101085.19;;;-6.92;65.23
39267;BME280;24967;51.154;13.812;2022-12-18T02:09:41;101094.66;;;-6.87;64.51
39267;BME280;24967;51.154;13.812;2022-12-18T02:12:11;101100.69;;;-6.84;65.17
39267;BME280;24967;51.154;13.812;2022-12-18T02:14:42;101092.06;;;-6.80;64.23
39267;BME280;24967;51.154;13.812;2022-12-18T02:17:12;101101.53;;;-6.73;64.54
39267;BME280;24967;51.154;13.812;2022-12-18T02:19:44;101092.94;;;-6.72;64.63
39267;BME280;24967;51.154;13.812;2022-12-18T02:22:20;101086.88;;;-6.71;64.29
39267;BME280;24967;51.154;13.812;2022-12-18T02:24:54;101092.94;;;-6.72;64.92
39267;BME280;24967;51.154;13.812;2022-12-18T02:27:26;101098.09;;;-6.72;64.65
39267;BME280;24967;51.154;13.812;2022-12-18T02:29:54;101105.88;;;-6.92;64.44
39267;BME280;24967;51.154;13.812;2022-12-18T02:32:22;101097.28;;;-7.04;65.00
39267;BME280;24967;51.154;13.812;2022-12-18T02:34:50;101106.78;;;-7.28;64.51
39267;BME280;24967;51.154;13.812;2022-12-18T02:37:18;101109.34;;;-7.09;64.95
39267;BME280;24967;51.154;13.812;2022-12-18T02:39:46;101105.03;;;-7.00;65.37
39267;BME280;24967;51.154;13.812;2022-12-18T02:42:14;101106.78;;;-7.02;64.89
39267;BME280;24967;51.154;13.812;2022-12-18T02:44:45;101100.72;;;-7.01;64.81
39267;BME280;24967;51.154;13.812;2022-12-18T02:47:12;101095.53;;;-6.90;65.02
39267;BME280;24967;51.154;13.812;2022-12-18T02:49:54;101102.44;;;-7.00;65.00
39267;BME280;24967;51.154;13.812;2022-12-18T02:52:25;101108.50;;;-7.16;65.73
39267;BME280;24967;51.154;13.812;2022-12-18T02:54:57;101117.09;;;-7.32;65.75
39267;BME280;24967;51.154;13.812;2022-12-18T02:57:30;101118.00;;;-7.29;66.17
39267;BME280;24967;51.154;13.812;2022-12-18T03:00:04;101112.81;;;-7.17;66.40
39267;BME280;24967;51.154;13.812;2022-12-18T03:02:33;101105.03;;;-6.97;66.63
39267;BME280;24967;51.154;13.812;2022-12-18T03:05:03;101109.34;;;-6.89;66.34
39267;BME280;24967;51.154;13.812;2022-12-18T03:07:34;101108.44;;;-6.79;66.31
39267;BME280;24967;51.154;13.812;2022-12-18T03:10:03;101113.59;;;-6.75;66.20
39267;BME280;24967;51.154;13.812;2022-12-18T03:12:32;101106.66;;;-6.60;65.78
39267;BME280;24967;51.154;13.812;2022-12-18T03:15:02;101094.56;;;-6.49;65.97
39267;BME280;24967;51.154;13.812;2022-12-18T03:17:31;101106.69;;;-6.63;65.67
39267;BME280;24967;51.154;13.812;2022-12-18T03:19:59;101105.88;;;-6.90;66.16
39267;BME280;24967;51.154;13.812;2022-12-18T03:22:29;101109.31;;;-6.82;66.61
39267;BME280;24967;51.154;13.812;2022-12-18T03:24:56;101103.22;;;-6.61;66.45
39267;BME280;24967;51.154;13.812;2022-12-18T03:27:25;101110.09;;;-6.49;66.30
39267;BME280;24967;51.154;13.812;2022-12-18T03:29:52;101114.41;;;-6.57;65.57
39267;BME280;24967;51.154;13.812;2022-12-18T03:32:27;101114.44;;;-6.59;65.66
39267;BME280;24967;51.154;13.812;2022-12-18T03:34:55;101113.59;;;-6.67;65.99
39267;BME280;24967;51.154;13.812;2022-12-18T03:37:23;101120.47;;;-6.66;66.01
39267;BME280;24967;51.154;13.812;2022-12-18T03:39:50;101123.09;;;-6.68;65.83
39267;BME280;24967;51.154;13.812;2022-12-18T03:42:17;101129.94;;;-6.60;65.38
39267;BME280;24967;51.154;13.812;2022-12-18T03:44:51;101133.41;;;-6.58;65.05
39267;BME280;24967;51.154;13.812;2022-12-18T03:47:23;101136.88;;;-6.65;65.42
39267;BME280;24967;51.154;13.812;2022-12-18T03:49:54;101130.78;;;-6.57;64.94
39267;BME280;24967;51.154;13.812;2022-12-18T03:52:24;101129.09;;;-6.50;64.86
39267;BME280;24967;51.154;13.812;2022-12-18T03:54:53;101130.78;;;-6.49;64.74
39267;BME280;24967;51.154;13.812;2022-12-18T03:57:21;101133.41;;;-6.58;64.49
39267;BME280;24967;51.154;13.812;2022-12-18T03:59:49;101136.03;;;-6.80;64.11
39267;BME280;24967;51.154;13.812;2022-12-18T04:02:16;101130.88;;;-6.83;64.28
39267;BME280;24967;51.154;13.812;2022-12-18T04:04:43;101136.88;;;-6.87;64.39
39267;BME280;24967;51.154;13.812;2022-12-18T04:07:12;101130.88;;;-6.86;64.37
39267;BME280;24967;51.154;13.812;2022-12-18T04:09:39;101142.94;;;-6.77;63.80
39267;BME280;24967;51.154;13.812;2022-12-18T04:12:08;101139.47;;;-6.70;63.75
39267;BME280;24967;51.154;13.812;2022-12-18T04:14:34;101148.09;;;-6.73;63.81
39267;BME280;24967;51.154;13.812;2022-12-18T04:17:01;101146.38;;;-6.78;64.00
39267;BME280;24967;51.154;13.812;2022-12-18T04:19:27;101147.25;;;-6.95;63.43
39267;BME280;24967;51.154;13.812;2022-12-18T04:21:53;101145.53;;;-7.14;62.63
39267;BME280;24967;51.154;13.812;2022-12-18T04:24:21;101143.81;;;-7.12;63.08
39267;BME280;24967;51.154;13.812;2022-12-18T04:26:48;101154.16;;;-7.01;63.50
39267;BME280;24967;51.154;13.812;2022-12-18T04:29:14;101148.97;;;-6.97;63.55
39267;BME280;24967;51.154;13.812;2022-12-18T04:31:41;101153.31;;;-6.93;63.54
39267;BME280;24967;51.154;13.812;2022-12-18T04:34:07;101148.13;;;-7.03;63.24
39267;BME280;24967;51.154;13.812;2022-12-18T04:36:33;101149.00;;;-7.01;63.00
39267;BME280;24967;51.154;13.812;2022-12-18T04:39:00;101155.03;;;-7.01;63.31
39267;BME280;24967;51.154;13.812;2022-12-18T04:41:28;101162.75;;;-7.05;62.88
39267;BME280;24967;51.154;13.812;2022-12-18T04:43:54;101158.47;;;-7.09;62.96
39267;BME280;24967;51.154;13.812;2022-12-18T04:46:20;101162.78;;;-7.10;62.17
39267;BME280;24967;51.154;13.812;2022-12-18T04:48:47;101169.69;;;-7.10;63.15
39267;BME280;24967;51.154;13.812;2022-12-18T04:51:13;101167.94;;;-7.38;62.63
39267;BME280;24967;51.154;13.812;2022-12-18T04:53:40;101168.75;;;-7.54;61.66
39267;BME280;24967;51.154;13.812;2022-12-18T04:56:08;101162.75;;;-7.39;62.40
39267;BME280;24967;51.154;13.812;2022-12-18T04:58:36;101157.59;;;-7.39;62.29
39267;BME280;24967;51.154;13.812;2022-12-18T05:01:02;101154.16;;;-7.35;62.73
39267;BME280;24967;51.154;13.812;2022-12-18T05:03:29;101148.09;;;-7.35;62.00
39267;BME280;24967;51.154;13.812;2022-12-18T05:05:56;101151.56;;;-7.38;62.26
39267;BME280;24967;51.154;13.812;2022-12-18T05:08:22;101147.25;;;-7.39;61.63
39267;BME280;24967;51.154;13.812;2022-12-18T05:10:48;101150.69;;;-7.40;61.89
39267;BME280;24967;51.154;13.812;2022-12-18T05:13:15;101156.72;;;-7.43;62.40
39267;BME280;24967;51.154;13.812;2022-12-18T05:15:43;101157.56;;;-7.65;61.87
39267;BME280;24967;51.154;13.812;2022-12-18T05:18:17;101155.81;;;-7.71;61.96
39267;BME280;24967;51.154;13.812;2022-12-18T05:20:43;101157.56;;;-7.61;61.57
39267;BME280;24967;51.154;13.812;2022-12-18T05:23:09;101160.06;;;-7.91;62.21
39267;BME280;24967;51.154;13.812;2022-12-18T05:25:36;101161.72;;;-8.02;61.55
39267;BME280;24967;51.154;13.812;2022-12-18T05:28:02;101165.16;;;-8.13;62.38
39267;BME280;24967;51.154;13.812;2022-12-18T05:30:29;101158.28;;;-8.11;62.60
39267;BME280;24967;51.154;13.812;2022-12-18T05:32:57;101162.63;;;-7.94;62.56
39267;BME280;24967;51.154;13.812;2022-12-18T05:35:24;101165.22;;;-7.87;62.75
39267;BME280;24967;51.154;13.812;2022-12-18T05:37:51;101164.38;;;-7.84;61.85
39267;BME280;24967;51.154;13.812;2022-12-18T05:40:17;101158.38;;;-7.80;62.55
39267;BME280;24967;51.154;13.812;2022-12-18T05:42:43;101167.00;;;-7.76;62.02
39267;BME280;24967;51.154;13.812;2022-12-18T05:45:10;101170.44;;;-7.76;61.69
39267;BME280;24967;51.154;13.812;2022-12-18T05:47:36;101174.75;;;-7.76;61.86
39267;BME280;24967;51.154;13.812;2022-12-18T05:50:05;101173.88;;;-7.77;61.52
39267;BME280;24967;51.154;13.812;2022-12-18T05:52:32;101172.13;;;-7.81;61.90
39267;BME280;24967;51.154;13.812;2022-12-18T05:54:59;101169.53;;;-7.84;61.25
39267;BME280;24967;51.154;13.812;2022-12-18T05:57:25;101166.97;;;-7.81;61.81
39267;BME280;24967;51.154;13.812;2022-12-18T05:59:52;101173.81;;;-7.91;61.60
39267;BME280;24967;51.154;13.812;2022-12-18T06:02:19;101184.16;;;-7.92;61.82
39267;BME280;24967;51.154;13.812;2022-12-18T06:04:46;101180.69;;;-7.97;61.96
39267;BME280;24967;51.154;13.812;2022-12-18T06:07:14;101177.22;;;-7.99;61.96
39267;BME280;24967;51.154;13.812;2022-12-18T06:09:40;101179.81;;;-7.99;61.94
39267;BME280;24967;51.154;13.812;2022-12-18T06:12:06;101179.81;;;-7.99;61.58
39267;BME280;24967;51.154;13.812;2022-12-18T06:14:33;101183.28;;;-7.97;62.24
39267;BME280;24967;51.154;13.812;2022-12-18T06:16:59;101185.84;;;-7.96;61.71
39267;BME280;24967;51.154;13.812;2022-12-18T06:19:26;101186.72;;;-7.97;61.49
39267;BME280;24967;51.154;13.812;2022-12-18T06:21:52;101183.22;;;-8.10;61.54
39267;BME280;24967;51.154;13.812;2022-12-18T06:24:20;101190.94;;;-8.11;61.45
39267;BME280;24967;51.154;13.812;2022-12-18T06:26:46;101191.81;;;-8.14;61.44
39267;BME280;24967;51.154;13.812;2022-12-18T06:29:13;101200.44;;;-8.06;62.08
39267;BME280;24967;51.154;13.812;2022-12-18T06:31:39;101196.09;;;-8.14;61.56
39267;BME280;24967;51.154;13.812;2022-12-18T06:34:05;101203.00;;;-8.06;62.19
39267;BME280;24967;51.154;13.812;2022-12-18T06:36:32;101196.06;;;-8.17;62.13
39267;BME280;24967;51.154;13.812;2022-12-18T06:38:58;101186.63;;;-8.18;62.06
39267;BME280;24967;51.154;13.812;2022-12-18T06:41:26;101191.72;;;-8.31;61.83
39267;BME280;24967;51.154;13.812;2022-12-18T06:43:52;101196.03;;;-8.28;61.87
39267;BME280;24967;51.154;13.812;2022-12-18T06:46:19;101204.69;;;-8.18;61.75
39267;BME280;24967;51.154;13.812;2022-12-18T06:48:48;101200.34;;;-8.25;61.67
39267;BME280;24967;51.154;13.812;2022-12-18T06:51:16;101207.22;;;-8.26;61.81
39267;BME280;24967;51.154;13.812;2022-12-18T06:53:43;101207.22;;;-8.24;62.10
39267;BME280;24967;51.154;13.812;2022-12-18T06:56:09;101215.84;;;-8.24;62.52
39267;BME280;24967;51.154;13.812;2022-12-18T06:58:37;101208.03;;;-8.36;61.81
39267;BME280;24967;51.154;13.812;2022-12-18T07:01:05;101213.25;;;-8.25;62.34
39267;BME280;24967;51.154;13.812;2022-12-18T07:03:31;101216.72;;;-8.19;62.67
39267;BME280;24967;51.154;13.812;2022-12-18T07:05:58;101219.28;;;-8.25;62.10
39267;BME280;24967;51.154;13.812;2022-12-18T07:08:25;101222.75;;;-8.20;61.90
39267;BME280;24967;51.154;13.812;2022-12-18T07:10:51;101221.00;;;-8.24;61.94
39267;BME280;24967;51.154;13.812;2022-12-18T07:13:19;101230.38;;;-8.35;62.08
39267;BME280;24967;51.154;13.812;2022-12-18T07:15:46;101233.00;;;-8.31;61.66
39267;BME280;24967;51.154;13.812;2022-12-18T07:18:13;101235.56;;;-8.29;62.54
39267;BME280;24967;51.154;13.812;2022-12-18T07:20:39;101233.00;;;-8.26;62.09
39267;BME280;24967;51.154;13.812;2022-12-18T07:23:05;101227.81;;;-8.34;62.15
39267;BME280;24967;51.154;13.812;2022-12-18T07:25:33;101223.59;;;-8.25;62.21
39267;BME280;24967;51.154;13.812;2022-12-18T07:27:59;101227.03;;;-8.20;62.68
39267;BME280;24967;51.154;13.812;2022-12-18T07:30:26;101232.22;;;-8.17;62.44
39267;BME280;24967;51.154;13.812;2022-12-18T07:32:54;101228.72;;;-8.24;62.31
39267;BME280;24967;51.154;13.812;2022-12-18T07:35:20;101231.31;;;-8.24;61.90
39267;BME280;24967;51.154;13.812;2022-12-18T07:37:47;101238.25;;;-8.20;62.26
39267;BME280;24967;51.154;13.812;2022-12-18T07:40:13;101255.44;;;-8.19;62.55
39267;BME280;24967;51.154;13.812;2022-12-18T07:42:39;101255.38;;;-8.31;62.61
39267;BME280;24967;51.154;13.812;2022-12-18T07:45:06;101261.38;;;-8.31;62.51
39267;BME280;24967;51.154;13.812;2022-12-18T07:47:34;101259.69;;;-8.25;63.42
39267;BME280;24967;51.154;13.812;2022-12-18T07:50:02;101256.34;;;-8.14;62.81
39267;BME280;24967;51.154;13.812;2022-12-18T07:52:29;101255.44;;;-8.14;63.29
39267;BME280;24967;51.154;13.812;2022-12-18T07:54:55;101263.22;;;-8.11;63.34
39267;BME280;24967;51.154;13.812;2022-12-18T07:57:21;101265.84;;;-8.03;63.29
39267;BME280;24967;51.154;13.812;2022-12-18T07:59:48;101263.31;;;-7.94;63.58
39267;BME280;24967;51.154;13.812;2022-12-18T08:02:14;101259.03;;;-7.92;63.83
39267;BME280;24967;51.154;13.812;2022-12-18T08:04:41;101258.94;;;-8.08;66.20
39267;BME280;24967;51.154;13.812;2022-12-18T08:07:08;101246.81;;;-8.21;71.60
39267;BME280;24967;51.154;13.812;2022-12-18T08:09:35;101249.47;;;-8.09;74.68
39267;BME280;24967;51.154;13.812;2022-12-18T08:12:01;101243.56;;;-7.83;75.76
39267;BME280;24967;51.154;13.812;2022-12-18T08:14:28;101241.06;;;-7.65;77.34
39267;BME280;24967;51.154;13.812;2022-12-18T08:16:54;101233.38;;;-7.39;77.93
39267;BME280;24967;51.154;13.812;2022-12-18T08:19:20;101234.28;;;-7.21;79.05
39267;BME280;24967;51.154;13.812;2022-12-18T08:21:47;101227.41;;;-7.04;79.60
39267;BME280;24967;51.154;13.812;2022-12-18T08:24:15;101229.13;;;-6.78;80.45
39267;BME280;24967;51.154;13.812;2022-12-18T08:26:41;101230.00;;;-6.64;81.14
39267;BME280;24967;51.154;13.812;2022-12-18T08:29:08;101232.56;;;-6.46;80.80
39267;BME280;24967;51.154;13.812;2022-12-18T08:31:34;101248.91;;;-6.30;80.94
39267;BME280;24967;51.154;13.812;2022-12-18T08:34:01;101255.78;;;-6.06;80.81
39267;BME280;24967;51.154;13.812;2022-12-18T08:36:27;101251.44;;;-5.96;81.75
39267;BME280;24967;51.154;13.812;2022-12-18T08:38:54;101245.31;;;-5.86;81.76
39267;BME280;24967;51.154;13.812;2022-12-18T08:41:21;101241.75;;;-5.60;81.62
39267;BME280;24967;51.154;13.812;2022-12-18T08:43:48;101243.44;;;-5.47;81.60
39267;BME280;24967;51.154;13.812;2022-12-18T08:46:32;101232.09;;;-5.27;81.23
39267;BME280;24967;51.154;13.812;2022-12-18T08:48:59;101231.09;;;-5.10;81.22
39267;BME280;24967;51.154;13.812;2022-12-18T08:51:26;101243.09;;;-4.92;80.93
39267;BME280;24967;51.154;13.812;2022-12-18T08:53:52;101239.63;;;-4.94;82.09
39267;BME280;24967;51.154;13.812;2022-12-18T08:56:19;101248.19;;;-4.78;82.42
39267;BME280;24967;51.154;13.812;2022-12-18T08:58:46;101242.78;;;-4.55;82.10
39267;BME280;24967;51.154;13.812;2022-12-18T09:01:13;101245.72;;;-4.04;81.64
39267;BME280;24967;51.154;13.812;2022-12-18T09:03:39;101244.56;;;-3.77;81.99
39267;BME280;24967;51.154;13.812;2022-12-18T09:06:06;101244.97;;;-3.41;82.82
39267;BME280;24967;51.154;13.812;2022-12-18T09:08:33;101250.56;;;-3.07;82.65
39267;BME280;24967;51.154;13.812;2022-12-18T09:10:59;101255.47;;;-2.88;80.94
39267;BME280;24967;51.154;13.812;2022-12-18T09:13:25;101249.81;;;-2.59;80.40
39267;BME280;24967;51.154;13.812;2022-12-18T09:15:53;101255.44;;;-2.33;80.60
39267;BME280;24967;51.154;13.812;2022-12-18T09:18:21;101243.00;;;-2.18;78.72
39267;BME280;24967;51.154;13.812;2022-12-18T09:20:47;101256.88;;;-2.15;77.60
39267;BME280;24967;51.154;13.812;2022-12-18T09:23:15;101270.47;;;-2.00;76.26
39267;BME280;24967;51.154;13.812;2022-12-18T09:25:41;101275.63;;;-1.96;76.95
39267;BME280;24967;51.154;13.812;2022-12-18T09:28:09;101280.50;;;-1.79;76.38
39267;BME280;24967;51.154;13.812;2022-12-18T09:30:36;101284.50;;;-1.61;75.29
39267;BME280;24967;51.154;13.812;2022-12-18T09:33:04;101281.63;;;-1.49;74.79
39267;BME280;24967;51.154;13.812;2022-12-18T09:35:31;101276.97;;;-1.33;73.00
39267;BME280;24967;51.154;13.812;2022-12-18T09:37:57;101274.03;;;-1.18;73.81
39267;BME280;24967;51.154;13.812;2022-12-18T09:40:25;101280.19;;;-1.22;71.29
39267;BME280;24967;51.154;13.812;2022-12-18T09:42:52;101277.22;;;-1.05;72.11
39267;BME280;24967;51.154;13.812;2022-12-18T09:45:20;101282.03;;;-0.88;72.35
39267;BME280;24967;51.154;13.812;2022-12-18T09:47:46;101281.81;;;-0.77;71.22
39267;BME280;24967;51.154;13.812;2022-12-18T09:50:19;101273.13;;;-0.78;71.18
39267;BME280;24967;51.154;13.812;2022-12-18T09:52:48;101271.97;;;-0.66;70.29
39267;BME280;24967;51.154;13.812;2022-12-18T09:55:20;101275.59;;;-0.72;69.40
39267;BME280;24967;51.154;13.812;2022-12-18T09:57:49;101271.44;;;-0.82;68.77
39267;BME280;24967;51.154;13.812;2022-12-18T10:00:18;101266.72;;;-1.03;68.67
39267;BME280;24967;51.154;13.812;2022-12-18T10:02:45;101259.88;;;-1.07;69.25
39267;BME280;24967;51.154;13.812;2022-12-18T10:05:13;101253.81;;;-1.09;68.47
39267;BME280;24967;51.154;13.812;2022-12-18T10:07:45;101246.25;;;-1.22;69.16
39267;BME280;24967;51.154;13.812;2022-12-18T10:10:16;101239.19;;;-1.17;69.58
39267;BME280;24967;51.154;13.812;2022-12-18T10:12:46;101232.69;;;-1.38;69.31
39267;BME280;24967;51.154;13.812;2022-12-18T10:15:19;101225.38;;;-1.22;69.56
39267;BME280;24967;51.154;13.812;2022-12-18T10:17:50;101226.25;;;-1.21;68.87
39267;BME280;24967;51.154;13.812;2022-12-18T10:20:19;101224.38;;;-1.16;69.72
39267;BME280;24967;51.154;13.812;2022-12-18T10:22:53;101221.22;;;-1.30;69.35
39267;BME280;24967;51.154;13.812;2022-12-18T10:25:24;101216.41;;;-1.49;70.25
39267;BME280;24967;51.154;13.812;2022-12-18T10:27:52;101214.56;;;-1.44;70.13
39267;BME280;24967;51.154;13.812;2022-12-18T10:30:21;101202.81;;;-1.23;70.43
39267;BME280;24967;51.154;13.812;2022-12-18T10:32:48;101194.28;;;-1.31;70.36
39267;BME280;24967;51.154;13.812;2022-12-18T10:35:16;101195.72;;;-1.18;69.85
39267;BME280;24967;51.154;13.812;2022-12-18T10:40:48;101184.81;;;-1.35;69.68
39267;BME280;24967;51.154;13.812;2022-12-18T10:43:16;101180.44;;;-1.33;70.56
39267;BME280;24967;51.154;13.812;2022-12-18T10:45:57;101193.16;;;-1.19;69.78
39267;BME280;24967;51.154;13.812;2022-12-18T10:48:24;101187.16;;;-1.24;69.39
39267;BME280;24967;51.154;13.812;2022-12-18T10:50:50;101181.94;;;-1.24;69.69
39267;BME280;24967;51.154;13.812;2022-12-18T10:53:18;101177.91;;;-1.38;69.20
39267;BME280;24967;51.154;13.812;2022-12-18T10:55:45;101178.75;;;-1.37;69.72
39267;BME280;24967;51.154;13.812;2022-12-18T10:58:19;101184.47;;;-1.20;70.80
39267;BME280;24967;51.154;13.812;2022-12-18T11:01:01;101192.31;;;-1.21;69.53
39267;BME280;24967;51.154;13.812;2022-12-18T11:03:30;101186.31;;;-1.25;69.15
39267;BME280;24967;51.154;13.812;2022-12-18T11:06:07;101178.19;;;-1.50;68.97
39267;BME280;24967;51.154;13.812;2022-12-18T11:08:34;101176.38;;;-1.46;70.37
39267;BME280;24967;51.154;13.812;2022-12-18T11:11:01;101179.75;;;-1.43;69.81
39267;BME280;24967;51.154;13.812;2022-12-18T11:13:29;101171.78;;;-1.35;69.94
39267;BME280;24967;51.154;13.812;2022-12-18T11:15:57;101165.28;;;-1.17;69.77
39267;BME280;24967;51.154;13.812;2022-12-18T11:18:25;101158.97;;;-1.08;69.34
39267;BME280;24967;51.154;13.812;2022-12-18T11:20:53;101148.53;;;-1.08;68.94
39267;BME280;24967;51.154;13.812;2022-12-18T11:23:20;101142.06;;;-1.29;68.99
39267;BME280;24967;51.154;13.812;2022-12-18T11:25:52;101142.81;;;-1.24;69.01
39267;BME280;24967;51.154;13.812;2022-12-18T11:28:26;101153.28;;;-1.26;68.93
39267;BME280;24967;51.154;13.812;2022-12-18T11:33:36;101145.78;;;-1.02;68.73
39267;BME280;24967;51.154;13.812;2022-12-18T11:36:04;101151.09;;;-1.07;68.01
39267;BME280;24967;51.154;13.812;2022-12-18T11:38:34;101148.31;;;-1.01;68.26
39267;BME280;24967;51.154;13.812;2022-12-18T11:41:02;101155.50;;;-1.09;67.50
39267;BME280;24967;51.154;13.812;2022-12-18T11:43:31;101153.09;;;-0.82;67.81
39267;BME280;24967;51.154;13.812;2022-12-18T11:45:59;101150.66;;;-0.56;67.33
39267;BME280;24967;51.154;13.812;2022-12-18T11:48:27;101147.13;;;-0.55;66.11
39267;BME280;24967;51.154;13.812;2022-12-18T11:50:56;101142.00;;;-0.58;65.83
39267;BME280;24967;51.154;13.812;2022-12-18T11:53:23;101147.31;;;-0.61;66.24
39267;BME280;24967;51.154;13.812;2022-12-18T11:55:56;101156.88;;;-0.60;66.11
39267;BME280;24967;51.154;13.812;2022-12-18T11:58:33;101155.94;;;-0.57;66.15
39267;BME280;24967;51.154;13.812;2022-12-18T12:01:07;101155.53;;;-0.42;66.21
39267;BME280;24967;51.154;13.812;2022-12-18T12:03:45;101147.38;;;-0.62;65.30
39267;BME280;24967;51.154;13.812;2022-12-18T12:06:19;101152.53;;;-0.28;66.14
39267;BME280;24967;51.154;13.812;2022-12-18T12:08:52;101156.38;;;-0.10;65.59
39267;BME280;24967;51.154;13.812;2022-12-18T12:11:26;101157.25;;;-0.10;64.54
39267;BME280;24967;51.154;13.812;2022-12-18T12:13:58;101154.72;;;-0.13;64.57
39267;BME280;24967;51.154;13.812;2022-12-18T12:16:28;101157.38;;;-0.14;63.84
39267;BME280;24967;51.154;13.812;2022-12-18T12:19:02;101170.69;;;0.08;63.91
39267;BME280;24967;51.154;13.812;2022-12-18T12:21:35;101171.00;;;-0.03;63.36
39267;BME280;24967;51.154;13.812;2022-12-18T12:24:04;101170.94;;;0.00;63.16
39267;BME280;24967;51.154;13.812;2022-12-18T12:26:38;101163.09;;;0.00;62.91
39267;BME280;24967;51.154;13.812;2022-12-18T12:29:13;101157.03;;;-0.02;63.13
39267;BME280;24967;51.154;13.812;2022-12-18T12:31:52;101170.84;;;0.03;63.33
39267;BME280;24967;51.154;13.812;2022-12-18T12:34:22;101173.69;;;-0.37;62.66
39267;BME280;24967;51.154;13.812;2022-12-18T12:37:01;101187.44;;;-0.31;64.16
39267;BME280;24967;51.154;13.812;2022-12-18T12:39:32;101200.66;;;-0.04;63.51
39267;BME280;24967;51.154;13.812;2022-12-18T12:42:02;101196.84;;;0.08;63.19
39267;BME280;24967;51.154;13.812;2022-12-18T12:44:49;101199.94;;;0.22;62.26
39267;BME280;24967;51.154;13.812;2022-12-18T12:47:19;101204.97;;;0.28;61.67
39267;BME280;24967;51.154;13.812;2022-12-18T12:49:47;101202.91;;;0.10;61.06
39267;BME280;24967;51.154;13.812;2022-12-18T12:52:15;101202.31;;;0.00;61.74